createdAt,value
2018-04-16T00:01:54.484Z,69.93
2018-04-16T00:04:26.992Z,69.96
2018-04-16T00:06:59.520Z,69.74
2018-04-16T00:09:32.031Z,69.73
2018-04-16T00:12:04.569Z,69.82
2018-04-16T00:14:37.132Z,69.67
2018-04-16T00:17:09.670Z,69.33
2018-04-16T00:19:42.178Z,69.66
2018-04-16T00:22:14.701Z,69.49
2018-04-16T00:24:47.229Z,69.59
2018-04-16T00:27:19.762Z,69.24
2018-04-16T00:29:52.280Z,69.29
2018-04-16T00:32:30.567Z,69.37
2018-04-16T00:35:08.628Z,69.67
2018-04-16T00:37:46.771Z,69.71
2018-04-16T00:40:24.784Z,69.46
2018-04-16T00:43:02.949Z,69.52
2018-04-16T00:45:41.072Z,69.49
2018-04-16T00:48:19.131Z,69.33
2018-04-16T00:50:57.267Z,69.27
2018-04-16T00:53:47.343Z,69.19
2018-04-16T00:56:25.612Z,69.28
2018-04-16T00:59:03.663Z,69.07
2018-04-16T01:01:41.830Z,69.25
2018-04-16T01:04:19.979Z,69.54
2018-04-16T01:06:58.067Z,69.43
2018-04-16T01:09:36.093Z,69.40
2018-04-16T01:12:14.185Z,69.30
2018-04-16T01:14:52.336Z,69.64
2018-04-16T01:17:30.578Z,69.70
2018-04-16T01:20:08.672Z,69.69
2018-04-16T01:22:46.752Z,69.48
2018-04-16T01:25:24.824Z,69.51
2018-04-16T01:28:03.076Z,69.34
2018-04-16T01:30:41.159Z,69.24
2018-04-16T01:33:19.450Z,69.45
2018-04-16T01:35:57.631Z,69.33
2018-04-16T01:38:35.695Z,69.46
2018-04-16T01:41:13.912Z,69.26
2018-04-16T01:43:51.972Z,69.40
2018-04-16T01:46:30.097Z,69.57
2018-04-16T01:49:08.198Z,69.47
2018-04-16T01:51:46.385Z,69.32
2018-04-16T01:57:28.563Z,69.50
2018-04-16T02:00:06.595Z,69.40
2018-04-16T02:02:44.842Z,69.60
2018-04-16T02:05:23.091Z,69.56
2018-04-16T02:08:01.195Z,69.52
2018-04-16T02:10:39.386Z,69.62
2018-04-16T02:13:17.512Z,69.78
2018-04-16T02:15:55.621Z,69.89
2018-04-16T02:18:33.845Z,69.76
2018-04-16T02:21:12.108Z,69.54
2018-04-16T02:23:50.268Z,68.99
2018-04-16T02:26:28.412Z,69.27
2018-04-16T02:29:06.535Z,69.69
2018-04-16T02:31:44.778Z,69.65
2018-04-16T02:34:22.873Z,69.47
2018-04-16T02:37:00.990Z,69.21
2018-04-16T02:39:39.053Z,68.96
2018-04-16T02:42:17.212Z,69.01
2018-04-16T02:44:55.444Z,69.00
2018-04-16T02:47:33.674Z,68.99
2018-04-16T02:50:11.995Z,68.78
2018-04-16T02:52:50.204Z,68.54
2018-04-16T02:55:28.395Z,68.78
2018-04-16T02:58:06.484Z,68.48
2018-04-16T03:00:44.630Z,68.57
2018-04-16T03:03:22.724Z,69.00
2018-04-16T03:06:00.760Z,69.15
2018-04-16T03:08:39.071Z,69.03
2018-04-16T03:11:17.245Z,68.77
2018-04-16T03:13:55.341Z,68.80
2018-04-16T03:16:33.406Z,68.91
2018-04-16T03:19:11.581Z,68.52
2018-04-16T03:24:53.897Z,69.86
2018-04-16T03:27:32.053Z,69.67
2018-04-16T03:30:10.195Z,69.45
2018-04-16T03:32:48.284Z,69.19
2018-04-16T03:35:26.375Z,69.15
2018-04-16T03:38:04.569Z,69.28
2018-04-16T03:40:42.672Z,69.15
2018-04-16T03:43:20.755Z,68.94
2018-04-16T03:45:59.019Z,69.06
2018-04-16T03:48:37.289Z,69.13
2018-04-16T03:51:09.829Z,69.12
2018-04-16T03:53:48.064Z,69.19
2018-04-16T03:56:20.595Z,69.05
2018-04-16T03:58:53.115Z,69.05
2018-04-16T04:01:25.738Z,68.94
2018-04-16T04:03:58.232Z,68.80
2018-04-16T04:06:30.753Z,68.73
2018-04-16T04:09:03.305Z,68.87
2018-04-16T04:11:35.864Z,68.90
2018-04-16T04:14:08.455Z,68.93
2018-04-16T04:16:40.993Z,68.89
2018-04-16T04:19:13.509Z,68.90
2018-04-16T04:21:46.119Z,68.76
2018-04-16T04:24:30.459Z,68.83
2018-04-16T04:27:14.909Z,69.00
2018-04-16T04:29:59.436Z,68.90
2018-04-16T04:32:31.964Z,68.89
2018-04-16T04:35:04.589Z,68.82
2018-04-16T04:37:37.123Z,68.78
2018-04-16T04:40:09.623Z,68.94
2018-04-16T04:42:42.159Z,69.02
2018-04-16T04:45:14.730Z,69.21
2018-04-16T04:47:47.315Z,69.13
2018-04-16T04:50:19.816Z,68.76
2018-04-16T04:52:52.338Z,68.93
2018-04-16T04:55:24.856Z,69.00
2018-04-16T04:57:57.381Z,68.98
2018-04-16T05:00:29.886Z,68.71
2018-04-16T05:03:02.407Z,68.89
2018-04-16T05:05:34.924Z,68.74
2018-04-16T05:08:07.448Z,68.88
2018-04-16T05:10:40.061Z,69.01
2018-04-16T05:13:12.592Z,68.96
2018-04-16T05:15:45.142Z,69.07
2018-04-16T05:18:17.727Z,68.75
2018-04-16T05:20:50.263Z,68.53
2018-04-16T05:23:22.792Z,68.94
2018-04-16T05:25:55.377Z,69.05
2018-04-16T05:28:27.915Z,68.93
2018-04-16T05:31:00.423Z,68.96
2018-04-16T05:33:33.035Z,68.65
2018-04-16T05:36:05.546Z,68.79
2018-04-16T05:38:38.068Z,68.95
2018-04-16T05:41:10.566Z,68.93
2018-04-16T05:43:43.101Z,68.99
2018-04-16T05:46:15.604Z,68.96
2018-04-16T05:48:48.123Z,68.87
2018-04-16T05:51:20.741Z,68.81
2018-04-16T05:53:53.267Z,69.02
2018-04-16T05:56:25.817Z,69.20
2018-04-16T05:58:58.387Z,68.81
2018-04-16T06:01:30.889Z,68.81
2018-04-16T06:04:03.463Z,68.51
2018-04-16T06:06:35.965Z,68.55
2018-04-16T06:09:08.532Z,68.67
2018-04-16T06:11:41.033Z,68.64
2018-04-16T06:14:13.601Z,68.61
2018-04-16T06:16:46.111Z,68.55
2018-04-16T06:19:18.644Z,68.62
2018-04-16T06:21:51.153Z,68.60
2018-04-16T06:24:23.747Z,69.05
2018-04-16T06:26:56.404Z,68.98
2018-04-16T06:29:29.019Z,68.72
2018-04-16T06:32:01.526Z,68.41
2018-04-16T06:34:34.055Z,68.13
2018-04-16T06:37:06.560Z,67.91
2018-04-16T06:39:39.083Z,68.02
2018-04-16T06:42:11.654Z,67.99
2018-04-16T06:44:44.229Z,67.80
2018-04-16T06:47:16.808Z,67.67
2018-04-16T06:49:49.358Z,67.62
2018-04-16T06:52:22.090Z,67.51
2018-04-16T06:54:54.811Z,67.47
2018-04-16T06:57:27.326Z,67.50
2018-04-16T06:59:59.956Z,66.82
2018-04-16T07:02:32.477Z,68.20
2018-04-16T07:05:05.128Z,69.02
2018-04-16T07:07:37.711Z,69.14
2018-04-16T07:10:10.307Z,69.42
2018-04-16T07:12:42.871Z,69.31
2018-04-16T07:15:15.393Z,68.70
2018-04-16T07:17:47.910Z,68.00
2018-04-16T07:20:20.440Z,67.71
2018-04-16T07:22:52.960Z,68.60
2018-04-16T07:25:25.595Z,68.70
2018-04-16T07:27:58.097Z,68.86
2018-04-16T07:30:30.615Z,68.90
2018-04-16T07:33:03.127Z,68.46
2018-04-16T07:35:35.657Z,68.48
2018-04-16T07:38:08.235Z,67.91
2018-04-16T07:40:40.758Z,68.34
2018-04-16T07:43:13.261Z,67.85
2018-04-16T07:45:45.785Z,68.18
2018-04-16T07:48:18.375Z,68.27
2018-04-16T07:50:50.902Z,68.17
2018-04-16T07:53:23.436Z,68.38
2018-04-16T07:55:55.963Z,68.11
2018-04-16T07:58:28.503Z,68.14
2018-04-16T08:01:01.096Z,67.40
2018-04-16T08:03:33.594Z,67.29
2018-04-16T08:06:06.126Z,67.56
2018-04-16T08:08:38.632Z,67.38
2018-04-16T08:11:11.170Z,67.14
2018-04-16T08:13:43.695Z,66.16
2018-04-16T08:16:16.212Z,66.54
2018-04-16T08:18:48.733Z,67.49
2018-04-16T08:21:21.239Z,67.32
2018-04-16T08:23:53.765Z,67.63
2018-04-16T08:26:26.279Z,67.84
2018-04-16T08:28:58.819Z,67.22
2018-04-16T08:31:31.322Z,66.97
2018-04-16T08:34:03.839Z,67.76
2018-04-16T08:36:36.345Z,67.41
2018-04-16T08:39:08.864Z,68.14
2018-04-16T08:41:41.368Z,67.54
2018-04-16T08:44:13.887Z,66.97
2018-04-16T08:46:46.467Z,67.67
2018-04-16T08:49:19.019Z,67.44
2018-04-16T08:51:51.526Z,67.50
2018-04-16T08:54:24.048Z,67.43
2018-04-16T08:56:56.552Z,66.13
2018-04-16T08:59:29.148Z,65.43
2018-04-16T09:02:01.655Z,65.86
2018-04-16T09:04:34.176Z,66.01
2018-04-16T09:07:06.685Z,66.61
2018-04-16T09:09:39.203Z,66.45
2018-04-16T09:12:11.712Z,66.17
2018-04-16T09:14:44.262Z,65.17
2018-04-16T09:17:16.774Z,65.01
2018-04-16T09:19:49.300Z,65.89
2018-04-16T09:22:21.805Z,66.08
2018-04-16T09:24:54.398Z,65.16
2018-04-16T09:27:26.909Z,65.42
2018-04-16T09:29:59.468Z,64.47
2018-04-16T09:32:32.468Z,63.92
2018-04-16T09:35:05.053Z,63.49
2018-04-16T09:37:37.637Z,63.49
2018-04-16T09:40:10.164Z,63.62
2018-04-16T09:42:42.684Z,63.77
2018-04-16T09:45:15.305Z,62.62
2018-04-16T09:47:47.806Z,62.44
2018-04-16T09:50:20.361Z,62.52
2018-04-16T09:52:52.851Z,62.52
2018-04-16T09:55:25.377Z,62.61
2018-04-16T09:57:57.887Z,62.67
2018-04-16T10:00:30.526Z,62.21
2018-04-16T10:03:03.023Z,62.17
2018-04-16T10:05:35.555Z,60.88
2018-04-16T10:08:08.059Z,62.06
2018-04-16T10:10:40.584Z,61.28
2018-04-16T10:13:13.095Z,62.89
2018-04-16T10:15:45.732Z,62.64
2018-04-16T10:18:18.317Z,62.07
2018-04-16T10:20:50.852Z,60.40
2018-04-16T10:23:23.354Z,59.17
2018-04-16T10:25:55.879Z,60.62
2018-04-16T10:28:28.380Z,60.21
2018-04-16T10:31:00.912Z,61.15
2018-04-16T10:33:33.416Z,59.48
2018-04-16T10:36:06.011Z,59.63
2018-04-16T10:38:38.518Z,60.43
2018-04-16T10:41:11.040Z,60.55
2018-04-16T10:43:43.562Z,59.80
2018-04-16T10:46:16.091Z,58.46
2018-04-16T10:48:48.596Z,58.13
2018-04-16T10:51:21.232Z,58.12
2018-04-16T10:53:53.727Z,56.66
2018-04-16T10:56:26.331Z,56.80
2018-04-16T10:58:58.872Z,57.42
2018-04-16T11:01:31.407Z,54.76
2018-04-16T11:04:03.952Z,55.88
2018-04-16T11:06:36.480Z,57.63
2018-04-16T11:09:08.979Z,57.00
2018-04-16T11:11:41.549Z,56.66
2018-04-16T11:14:14.056Z,55.27
2018-04-16T11:16:46.689Z,56.20
2018-04-16T11:19:19.270Z,55.31
2018-04-16T11:21:51.799Z,55.31
2018-04-16T11:24:24.335Z,56.57
2018-04-16T11:26:56.867Z,55.70
2018-04-16T11:29:29.379Z,54.82
2018-04-16T11:32:01.899Z,55.70
2018-04-16T11:34:34.407Z,56.68
2018-04-16T11:37:06.941Z,55.04
2018-04-16T11:39:39.539Z,53.54
2018-04-16T11:42:12.060Z,53.92
2018-04-16T11:44:44.571Z,54.72
2018-04-16T11:47:17.155Z,54.85
2018-04-16T11:49:49.657Z,53.89
2018-04-16T11:52:22.180Z,53.90
2018-04-16T11:54:54.675Z,54.58
2018-04-16T11:57:27.211Z,54.89
2018-04-16T11:59:59.745Z,53.65
2018-04-16T12:02:32.271Z,53.64
2018-04-16T12:05:04.777Z,54.66
2018-04-16T12:07:37.360Z,54.53
2018-04-16T12:10:09.860Z,56.02
2018-04-16T12:12:42.384Z,53.42
2018-04-16T12:15:14.891Z,54.28
2018-04-16T12:17:47.667Z,54.75
2018-04-16T12:20:20.291Z,51.75
2018-04-16T12:22:52.817Z,51.56
2018-04-16T12:25:25.321Z,52.02
2018-04-16T12:27:57.934Z,52.11
2018-04-16T12:30:30.436Z,52.24
2018-04-16T12:33:03.020Z,54.04
2018-04-16T12:35:35.491Z,52.82
2018-04-16T12:38:08.025Z,52.74
2018-04-16T12:40:40.568Z,51.70
2018-04-16T12:43:13.142Z,52.94
2018-04-16T12:45:45.727Z,51.99
2018-04-16T12:48:18.315Z,50.94
2018-04-16T12:50:50.851Z,50.83
2018-04-16T12:53:23.363Z,51.43
2018-04-16T12:55:55.884Z,51.70
2018-04-16T12:58:28.376Z,52.19
2018-04-16T13:01:00.944Z,52.01
2018-04-16T13:03:33.519Z,49.78
2018-04-16T13:06:06.049Z,50.67
2018-04-16T13:08:38.557Z,49.05
2018-04-16T13:11:11.089Z,50.55
2018-04-16T13:13:43.665Z,52.56
2018-04-16T13:16:16.188Z,50.84
2018-04-16T13:18:48.689Z,50.88
2018-04-16T13:21:21.203Z,50.12
2018-04-16T13:23:53.808Z,50.05
2018-04-16T13:26:26.396Z,50.40
2018-04-16T13:28:58.981Z,47.70
2018-04-16T13:31:31.583Z,47.36
2018-04-16T13:34:04.151Z,46.79
2018-04-16T13:36:36.737Z,43.99
2018-04-16T13:39:09.232Z,43.59
2018-04-16T13:41:41.736Z,41.55
2018-04-16T13:44:14.227Z,44.95
2018-04-16T13:46:46.739Z,46.00
2018-04-16T13:49:19.270Z,46.52
2018-04-16T13:51:51.793Z,47.24
2018-04-16T13:54:24.287Z,45.05
2018-04-16T13:56:56.805Z,48.92
2018-04-16T13:59:29.312Z,50.03
2018-04-16T14:02:01.837Z,51.37
2018-04-16T14:04:34.341Z,50.30
2018-04-16T14:07:06.869Z,50.16
2018-04-16T14:09:39.364Z,49.85
2018-04-16T14:12:11.886Z,51.53
2018-04-16T14:14:44.392Z,50.62
2018-04-16T14:17:17.000Z,50.49
2018-04-16T14:19:49.515Z,50.15
2018-04-16T14:22:22.028Z,51.70
2018-04-16T14:24:54.528Z,52.14
2018-04-16T14:27:27.045Z,54.79
2018-04-16T14:29:59.535Z,55.03
2018-04-16T14:32:32.106Z,55.90
2018-04-16T14:35:04.601Z,57.04
2018-04-16T14:37:37.172Z,57.41
2018-04-16T14:40:09.659Z,57.91
2018-04-16T14:42:42.179Z,60.13
2018-04-16T14:45:14.730Z,61.14
2018-04-16T14:47:47.380Z,63.24
2018-04-16T14:50:19.877Z,65.07
2018-04-16T14:52:52.404Z,66.64
2018-04-16T14:55:24.915Z,67.45
2018-04-16T14:57:57.457Z,67.94
2018-04-16T15:00:29.977Z,68.44
2018-04-16T15:03:02.499Z,68.41
2018-04-16T15:05:35.020Z,67.96
2018-04-16T15:08:07.566Z,69.91
2018-04-16T15:10:40.094Z,74.08
2018-04-16T15:13:12.622Z,72.20
2018-04-16T15:15:45.123Z,73.79
2018-04-16T15:18:17.642Z,72.68
2018-04-16T15:20:50.212Z,70.56
2018-04-16T15:23:22.751Z,71.95
2018-04-16T15:25:55.277Z,71.78
2018-04-16T15:28:27.964Z,71.54
2018-04-16T15:31:00.487Z,72.09
2018-04-16T15:33:33.055Z,73.66
2018-04-16T15:36:05.564Z,73.08
2018-04-16T15:38:38.120Z,72.23
2018-04-16T15:41:10.635Z,72.55
2018-04-16T15:43:43.168Z,72.71
2018-04-16T15:46:15.669Z,72.26
2018-04-16T15:48:48.192Z,72.05
2018-04-16T15:51:20.693Z,72.08
2018-04-16T15:53:53.220Z,71.89
2018-04-16T15:56:25.739Z,71.87
2018-04-16T15:58:58.265Z,72.04
2018-04-16T16:01:30.883Z,72.57
2018-04-16T16:04:03.419Z,72.42
2018-04-16T16:06:36.170Z,72.59
2018-04-16T16:09:08.794Z,71.99
2018-04-16T16:11:41.301Z,71.97
2018-04-16T16:14:13.831Z,72.41
2018-04-16T16:16:46.355Z,72.38
2018-04-16T16:19:18.898Z,71.85
2018-04-16T16:21:51.420Z,72.29
2018-04-16T16:24:23.918Z,71.27
2018-04-16T16:26:56.535Z,69.66
2018-04-16T16:29:29.123Z,69.14
2018-04-16T16:32:01.652Z,68.81
2018-04-16T16:34:34.195Z,69.76
2018-04-16T16:37:06.779Z,70.08
2018-04-16T16:39:39.288Z,70.35
2018-04-16T16:42:11.815Z,69.48
2018-04-16T16:44:44.313Z,69.58
2018-04-16T16:47:17.091Z,69.62
2018-04-16T16:49:49.600Z,70.30
2018-04-16T16:52:22.219Z,68.80
2018-04-16T16:54:54.723Z,69.14
2018-04-16T16:57:27.275Z,68.73
2018-04-16T16:59:59.876Z,68.52
2018-04-16T17:02:32.461Z,68.10
2018-04-16T17:05:04.931Z,66.96
2018-04-16T17:07:37.511Z,67.29
2018-04-16T17:10:10.015Z,66.65
2018-04-16T17:12:42.588Z,66.89
2018-04-16T17:15:15.167Z,66.53
2018-04-16T17:17:48.027Z,66.86
2018-04-16T17:20:20.537Z,66.29
2018-04-16T17:22:53.139Z,66.40
2018-04-16T17:25:25.651Z,66.18
2018-04-16T17:27:58.192Z,66.81
2018-04-16T17:30:30.695Z,67.38
2018-04-16T17:33:03.563Z,67.96
2018-04-16T17:35:36.177Z,67.58
2018-04-16T17:38:08.768Z,68.01
2018-04-16T17:40:41.320Z,67.57
2018-04-16T17:43:13.880Z,67.79
2018-04-16T17:45:46.383Z,68.01
2018-04-16T17:48:19.041Z,68.50
2018-04-16T17:50:51.611Z,68.81
2018-04-16T17:53:24.308Z,68.74
2018-04-16T17:55:56.806Z,69.37
2018-04-16T17:58:29.531Z,69.21
2018-04-16T18:01:02.030Z,69.22
2018-04-16T18:03:34.691Z,69.53
2018-04-16T18:06:07.198Z,69.22
2018-04-16T18:08:40.120Z,69.15
2018-04-16T18:11:12.625Z,69.44
2018-04-16T18:13:45.147Z,69.30
2018-04-16T18:16:17.724Z,69.43
2018-04-16T18:18:50.259Z,69.63
2018-04-16T18:21:22.831Z,69.45
2018-04-16T18:23:55.375Z,69.38
2018-04-16T18:26:27.902Z,69.51
2018-04-16T18:29:00.436Z,69.58
2018-04-16T18:31:32.965Z,69.59
2018-04-16T18:34:05.488Z,69.59
2018-04-16T18:36:38.010Z,69.83
2018-04-16T18:39:12.574Z,69.78
2018-04-16T18:41:45.100Z,69.64
2018-04-16T18:44:17.748Z,69.63
2018-04-16T18:46:50.697Z,69.36
2018-04-16T18:49:23.224Z,69.67
2018-04-16T18:51:55.807Z,70.19
2018-04-16T18:54:28.331Z,69.93
2018-04-16T18:57:00.832Z,69.99
2018-04-16T18:59:33.403Z,70.12
2018-04-16T19:02:05.923Z,70.00
2018-04-16T19:04:38.536Z,70.25
2018-04-16T19:07:11.039Z,70.33
2018-04-16T19:09:46.264Z,70.37
2018-04-16T19:12:24.444Z,70.30
2018-04-16T19:14:56.974Z,70.29
2018-04-16T19:17:29.603Z,70.04
2018-04-16T19:20:02.267Z,69.92
2018-04-16T19:22:34.849Z,69.85
2018-04-16T19:25:07.427Z,69.75
2018-04-16T19:27:45.560Z,69.79
2018-04-16T19:30:18.096Z,69.82
2018-04-16T19:32:56.362Z,70.13
2018-04-16T19:35:28.867Z,69.82
2018-04-16T19:38:01.425Z,69.87
2018-04-16T19:40:34.008Z,69.60
2018-04-16T19:43:06.573Z,69.61
2018-04-16T19:45:39.088Z,69.55
2018-04-16T19:48:11.663Z,69.75
2018-04-16T19:50:44.168Z,69.70
2018-04-16T19:53:16.735Z,69.44
2018-04-16T19:55:54.893Z,69.89
2018-04-16T19:58:27.417Z,69.62
2018-04-16T20:00:59.960Z,69.44
2018-04-16T20:03:38.375Z,69.71
2018-04-16T20:06:10.956Z,69.73
2018-04-16T20:08:43.488Z,69.58
2018-04-16T20:11:16.019Z,69.70
2018-04-16T20:13:48.549Z,69.89
2018-04-16T20:16:21.118Z,69.86
2018-04-16T20:18:53.661Z,69.78
2018-04-16T20:21:26.369Z,69.87
2018-04-16T20:23:58.915Z,69.77
2018-04-16T20:26:31.437Z,69.78
2018-04-16T20:29:03.962Z,69.61
2018-04-16T20:31:36.482Z,69.79
2018-04-16T20:34:09.091Z,69.73
2018-04-16T20:36:41.608Z,69.67
2018-04-16T20:39:14.297Z,69.85
2018-04-16T20:41:48.210Z,69.88
2018-04-16T20:44:20.761Z,69.61
2018-04-16T20:46:53.309Z,69.46
2018-04-16T20:49:25.884Z,69.54
2018-04-16T20:51:58.391Z,69.45
2018-04-16T20:54:30.940Z,69.28
2018-04-16T20:57:03.448Z,69.79
2018-04-16T20:59:36.031Z,69.59
2018-04-16T21:02:08.849Z,69.55
2018-04-16T21:04:41.383Z,69.40
2018-04-16T21:07:13.886Z,69.13
2018-04-16T21:09:46.416Z,69.40
2018-04-16T21:12:19.038Z,69.52
2018-04-16T21:14:51.568Z,69.26
2018-04-16T21:17:24.091Z,69.32
2018-04-16T21:19:56.618Z,69.09
2018-04-16T21:22:29.140Z,69.22
2018-04-16T21:25:01.664Z,69.25
2018-04-16T21:27:34.233Z,69.40
2018-04-16T21:30:06.765Z,69.07
2018-04-16T21:32:39.327Z,69.71
2018-04-16T21:35:11.899Z,69.69
2018-04-16T21:37:44.408Z,69.35
2018-04-16T21:40:16.966Z,69.27
2018-04-16T21:42:49.470Z,68.79
2018-04-16T21:45:21.997Z,69.22
2018-04-16T21:47:54.524Z,68.98
2018-04-16T21:50:27.116Z,68.96
2018-04-16T21:52:59.621Z,68.89
2018-04-16T21:55:32.175Z,69.07
2018-04-16T21:58:04.684Z,68.49
2018-04-16T22:00:37.256Z,68.82
2018-04-16T22:03:09.814Z,68.79
2018-04-16T22:05:42.325Z,68.65
2018-04-16T22:08:14.823Z,68.39
2018-04-16T22:10:47.383Z,68.47
2018-04-16T22:13:19.875Z,68.42
2018-04-16T22:15:52.441Z,68.51
2018-04-16T22:18:24.946Z,67.85
2018-04-16T22:20:57.459Z,68.30
2018-04-16T22:23:29.967Z,67.77
2018-04-16T22:26:02.478Z,68.62
2018-04-16T22:28:34.970Z,68.28
2018-04-16T22:31:07.504Z,68.92
2018-04-16T22:33:40.049Z,68.15
2018-04-16T22:36:12.649Z,68.69
2018-04-16T22:38:45.145Z,68.45
2018-04-16T22:41:17.671Z,68.43
2018-04-16T22:43:50.198Z,68.59
2018-04-16T22:46:22.767Z,68.79
2018-04-16T22:48:55.255Z,69.01
2018-04-16T22:51:27.775Z,69.02
2018-04-16T22:54:00.430Z,69.15
2018-04-16T22:56:33.032Z,69.36
2018-04-16T22:59:05.606Z,69.96
2018-04-16T23:01:38.122Z,69.90
2018-04-16T23:04:10.619Z,69.76
2018-04-16T23:06:43.153Z,69.80
2018-04-16T23:09:15.654Z,70.01
2018-04-16T23:11:48.172Z,70.30
2018-04-16T23:14:20.669Z,70.48
2018-04-16T23:16:53.193Z,70.49
2018-04-16T23:19:25.695Z,69.94
2018-04-16T23:21:58.282Z,70.19
2018-04-16T23:24:30.858Z,70.44
2018-04-16T23:27:03.619Z,70.83
2018-04-16T23:29:36.120Z,70.18
2018-04-16T23:32:08.690Z,70.06
2018-04-16T23:34:41.193Z,70.23
2018-04-16T23:37:13.712Z,70.36
2018-04-16T23:39:46.216Z,70.68
2018-04-16T23:42:18.755Z,70.66
2018-04-16T23:44:51.251Z,70.56
2018-04-16T23:47:23.763Z,70.40
2018-04-16T23:49:56.255Z,70.46
2018-04-16T23:52:28.776Z,70.24
2018-04-16T23:55:01.396Z,70.33
2018-04-16T23:57:33.971Z,70.21
